sensor_id;sensor_type;location;lat;lon;timestamp;pressure;altitude;pressure_sealevel;temperature;humidity
13974;BME280;7060;43.770;4.008;2023-01-04T00:02:00;102618.53;;;5.84;75.71
13974;BME280;7060;43.770;4.008;2023-01-04T00:04:30;102625.00;;;5.78;75.66
13974;BME280;7060;43.770;4.008;2023-01-04T00:06:59;102621.63;;;5.75;76.22
13974;BME280;7060;43.770;4.008;2023-01-04T00:09:27;102626.06;;;5.74;76.06
13974;BME280;7060;43.770;4.008;2023-01-04T00:11:56;102624.34;;;5.73;75.84
13974;BME280;7060;43.770;4.008;2023-01-04T00:14:24;102615.66;;;5.70;75.76
13974;BME280;7060;43.770;4.008;2023-01-04T00:16:52;102609.63;;;5.66;75.80
13974;BME280;7060;43.770;4.008;2023-01-04T00:19:21;102602.66;;;5.64;76.28
13974;BME280;7060;43.770;4.008;2023-01-04T00:21:52;102606.91;;;5.68;76.16
13974;BME280;7060;43.770;4.008;2023-01-04T00:24:21;102600.28;;;5.58;76.02
13974;BME280;7060;43.770;4.008;2023-01-04T00:26:52;102603.09;;;5.55;75.89
13974;BME280;7060;43.770;4.008;2023-01-04T00:29:22;102603.94;;;5.55;76.19
13974;BME280;7060;43.770;4.008;2023-01-04T00:31:50;102595.81;;;5.58;75.66
13974;BME280;7060;43.770;4.008;2023-01-04T00:34:19;102594.47;;;5.50;75.46
13974;BME280;7060;43.770;4.008;2023-01-04T00:36:47;102599.78;;;5.50;75.91
13974;BME280;7060;43.770;4.008;2023-01-04T00:39:17;102592.00;;;5.45;75.29
13974;BME280;7060;43.770;4.008;2023-01-04T00:41:47;102599.38;;;5.38;75.36
13974;BME280;7060;43.770;4.008;2023-01-04T00:44:25;102595.41;;;5.28;75.60
13974;BME280;7060;43.770;4.008;2023-01-04T00:46:54;102598.06;;;5.28;75.77
13974;BME280;7060;43.770;4.008;2023-01-04T00:49:22;102595.41;;;5.28;76.33
13974;BME280;7060;43.770;4.008;2023-01-04T00:51:51;102602.28;;;5.32;75.96
13974;BME280;7060;43.770;4.008;2023-01-04T00:54:21;102600.50;;;5.33;75.66
13974;BME280;7060;43.770;4.008;2023-01-04T00:56:50;102602.28;;;5.32;75.73
13974;BME280;7060;43.770;4.008;2023-01-04T00:59:20;102602.56;;;5.26;75.53
13974;BME280;7060;43.770;4.008;2023-01-04T01:01:49;102605.28;;;5.25;75.38
13974;BME280;7060;43.770;4.008;2023-01-04T01:04:19;102619.78;;;5.16;75.07
13974;BME280;7060;43.770;4.008;2023-01-04T01:06:48;102600.69;;;5.08;75.11
13974;BME280;7060;43.770;4.008;2023-01-04T01:09:17;102590.75;;;4.93;75.43
13974;BME280;7060;43.770;4.008;2023-01-04T01:11:51;102608.81;;;5.03;75.60
13974;BME280;7060;43.770;4.008;2023-01-04T01:14:21;102604.59;;;4.99;75.27
13974;BME280;7060;43.770;4.008;2023-01-04T01:16:50;102609.03;;;4.99;75.56
13974;BME280;7060;43.770;4.008;2023-01-04T01:19:22;102602.16;;;4.95;75.54
13974;BME280;7060;43.770;4.008;2023-01-04T01:21:54;102608.44;;;4.92;75.13
13974;BME280;7060;43.770;4.008;2023-01-04T01:24:26;102607.84;;;4.84;75.46
13974;BME280;7060;43.770;4.008;2023-01-04T01:26:57;102601.34;;;4.71;75.41
13974;BME280;7060;43.770;4.008;2023-01-04T01:29:26;102616.31;;;4.72;75.98
13974;BME280;7060;43.770;4.008;2023-01-04T01:31:55;102619.78;;;4.74;75.79
13974;BME280;7060;43.770;4.008;2023-01-04T01:34:23;102622.47;;;4.72;75.66
13974;BME280;7060;43.770;4.008;2023-01-04T01:36:52;102620.06;;;4.66;75.84
13974;BME280;7060;43.770;4.008;2023-01-04T01:39:20;102626.28;;;4.65;76.04
13974;BME280;7060;43.770;4.008;2023-01-04T01:41:48;102628.19;;;4.62;75.79
13974;BME280;7060;43.770;4.008;2023-01-04T01:47:42;102631.38;;;4.48;75.83
13974;BME280;7060;43.770;4.008;2023-01-04T01:50:24;102595.16;;;4.27;75.92
13974;BME280;7060;43.770;4.008;2023-01-04T01:52:54;102463.16;;;3.51;76.05
13974;BME280;7060;43.770;4.008;2023-01-04T01:55:26;102621.00;;;4.43;75.87
13974;BME280;7060;43.770;4.008;2023-01-04T01:57:56;102629.00;;;4.42;75.86
13974;BME280;7060;43.770;4.008;2023-01-04T02:00:28;102634.19;;;4.45;76.71
13974;BME280;7060;43.770;4.008;2023-01-04T02:03:08;102475.31;;;3.56;76.14
13974;BME280;7060;43.770;4.008;2023-01-04T02:05:39;102636.13;;;4.40;75.81
13974;BME280;7060;43.770;4.008;2023-01-04T02:08:11;102637.16;;;4.36;76.49
13974;BME280;7060;43.770;4.008;2023-01-04T02:10:40;102635.56;;;4.32;76.27
13974;BME280;7060;43.770;4.008;2023-01-04T02:13:11;102628.81;;;4.23;76.54
13974;BME280;7060;43.770;4.008;2023-01-04T02:15:50;102641.03;;;4.27;75.74
13974;BME280;7060;43.770;4.008;2023-01-04T02:18:26;102604.75;;;4.07;76.13
13974;BME280;7060;43.770;4.008;2023-01-04T02:20:58;102633.16;;;4.26;76.78
13974;BME280;7060;43.770;4.008;2023-01-04T02:26:49;102632.66;;;4.16;75.88
13974;BME280;7060;43.770;4.008;2023-01-04T02:32:32;102635.59;;;4.08;76.55
13974;BME280;7060;43.770;4.008;2023-01-04T02:35:15;102627.69;;;4.07;76.22
13974;BME280;7060;43.770;4.008;2023-01-04T02:37:49;102627.81;;;4.04;76.31
13974;BME280;7060;43.770;4.008;2023-01-04T02:40:30;102600.31;;;3.85;76.35
13974;BME280;7060;43.770;4.008;2023-01-04T02:43:04;102624.53;;;3.97;76.08
13974;BME280;7060;43.770;4.008;2023-01-04T02:45:57;102629.06;;;3.94;75.80
13974;BME280;7060;43.770;4.008;2023-01-04T02:48:35;102624.94;;;3.87;76.16
13974;BME280;7060;43.770;4.008;2023-01-04T02:51:27;102629.63;;;3.79;75.90
13974;BME280;7060;43.770;4.008;2023-01-04T02:53:59;102627.09;;;3.75;75.85
13974;BME280;7060;43.770;4.008;2023-01-04T02:56:43;102591.84;;;3.52;75.84
13974;BME280;7060;43.770;4.008;2023-01-04T02:59:28;102622.13;;;3.66;76.83
13974;BME280;7060;43.770;4.008;2023-01-04T03:02:07;102583.25;;;3.45;76.04
13974;BME280;7060;43.770;4.008;2023-01-04T03:05:04;102620.56;;;3.62;77.16
13974;BME280;7060;43.770;4.008;2023-01-04T03:07:56;102618.88;;;3.60;77.12
13974;BME280;7060;43.770;4.008;2023-01-04T03:10:36;102619.56;;;3.65;76.11
13974;BME280;7060;43.770;4.008;2023-01-04T03:13:16;102623.91;;;3.66;76.46
13974;BME280;7060;43.770;4.008;2023-01-04T03:15:48;102620.34;;;3.67;76.75
13974;BME280;7060;43.770;4.008;2023-01-04T03:18:21;102578.81;;;3.46;76.11
13974;BME280;7060;43.770;4.008;2023-01-04T03:20:54;102615.88;;;3.69;76.26
13974;BME280;7060;43.770;4.008;2023-01-04T03:23:26;102617.84;;;3.64;76.18
13974;BME280;7060;43.770;4.008;2023-01-04T03:26:16;102544.56;;;3.18;76.22
13974;BME280;7060;43.770;4.008;2023-01-04T03:29:22;102617.41;;;3.51;76.07
13974;BME280;7060;43.770;4.008;2023-01-04T03:32:13;102580.50;;;3.23;75.34
13974;BME280;7060;43.770;4.008;2023-01-04T03:35:01;102616.19;;;3.36;76.15
13974;BME280;7060;43.770;4.008;2023-01-04T03:37:51;102616.41;;;3.30;76.23
13974;BME280;7060;43.770;4.008;2023-01-04T03:40:43;102611.16;;;3.29;76.01
13974;BME280;7060;43.770;4.008;2023-01-04T03:43:37;102585.47;;;3.07;75.67
13974;BME280;7060;43.770;4.008;2023-01-04T03:46:30;102617.66;;;3.19;76.75
13974;BME280;7060;43.770;4.008;2023-01-04T03:49:26;102618.53;;;3.19;75.57
13974;BME280;7060;43.770;4.008;2023-01-04T03:51:58;102621.28;;;3.16;76.66
13974;BME280;7060;43.770;4.008;2023-01-04T03:54:32;102611.38;;;3.23;75.75
13974;BME280;7060;43.770;4.008;2023-01-04T03:57:03;102623.88;;;3.18;76.21
13974;BME280;7060;43.770;4.008;2023-01-04T03:59:35;102603.47;;;2.96;75.87
13974;BME280;7060;43.770;4.008;2023-01-04T04:02:04;102624.97;;;3.11;75.95
13974;BME280;7060;43.770;4.008;2023-01-04T04:04:40;102619.88;;;3.06;75.80
13974;BME280;7060;43.770;4.008;2023-01-04T04:07:26;102613.97;;;2.98;76.25
13974;BME280;7060;43.770;4.008;2023-01-04T04:10:14;102617.50;;;2.98;76.49
13974;BME280;7060;43.770;4.008;2023-01-04T04:12:42;102619.97;;;3.03;75.96
13974;BME280;7060;43.770;4.008;2023-01-04T04:15:11;102624.25;;;3.07;76.48
13974;BME280;7060;43.770;4.008;2023-01-04T04:17:39;102621.59;;;3.07;75.84
13974;BME280;7060;43.770;4.008;2023-01-04T04:20:09;102628.78;;;3.03;75.68
13974;BME280;7060;43.770;4.008;2023-01-04T04:22:39;102630.66;;;3.00;76.04
13974;BME280;7060;43.770;4.008;2023-01-04T04:25:08;102628.91;;;2.99;75.11
13974;BME280;7060;43.770;4.008;2023-01-04T04:27:38;102629.06;;;2.94;74.97
13974;BME280;7060;43.770;4.008;2023-01-04T04:30:07;102625.75;;;2.88;75.26
13974;BME280;7060;43.770;4.008;2023-01-04T04:32:36;102621.28;;;2.90;75.45
13974;BME280;7060;43.770;4.008;2023-01-04T04:35:05;102628.34;;;2.89;75.93
13974;BME280;7060;43.770;4.008;2023-01-04T04:37:33;102621.44;;;2.85;75.96
13974;BME280;7060;43.770;4.008;2023-01-04T04:40:03;102623.16;;;2.86;75.42
13974;BME280;7060;43.770;4.008;2023-01-04T04:42:35;102624.03;;;2.87;75.12
13974;BME280;7060;43.770;4.008;2023-01-04T04:45:06;102627.63;;;2.84;75.42
13974;BME280;7060;43.770;4.008;2023-01-04T04:47:34;102626.84;;;2.82;75.14
13974;BME280;7060;43.770;4.008;2023-01-04T04:50:03;102624.25;;;2.81;76.12
13974;BME280;7060;43.770;4.008;2023-01-04T04:52:32;102622.56;;;2.78;75.03
13974;BME280;7060;43.770;4.008;2023-01-04T04:55:00;102633.28;;;2.73;74.62
13974;BME280;7060;43.770;4.008;2023-01-04T04:57:28;102632.59;;;2.67;75.60
13974;BME280;7060;43.770;4.008;2023-01-04T04:59:57;102626.66;;;2.60;75.93
13974;BME280;7060;43.770;4.008;2023-01-04T05:02:27;102632.94;;;2.56;75.48
13974;BME280;7060;43.770;4.008;2023-01-04T05:05:03;102637.53;;;2.51;75.87
13974;BME280;7060;43.770;4.008;2023-01-04T05:07:35;102644.53;;;2.52;75.41
13974;BME280;7060;43.770;4.008;2023-01-04T05:10:04;102642.03;;;2.48;76.09
13974;BME280;7060;43.770;4.008;2023-01-04T05:12:32;102638.44;;;2.50;75.32
13974;BME280;7060;43.770;4.008;2023-01-04T05:15:23;102638.47;;;2.49;75.49
13974;BME280;7060;43.770;4.008;2023-01-04T05:17:53;102632.47;;;2.44;75.26
13974;BME280;7060;43.770;4.008;2023-01-04T05:20:22;102636.84;;;2.45;75.73
13974;BME280;7060;43.770;4.008;2023-01-04T05:22:51;102636.97;;;2.40;75.35
13974;BME280;7060;43.770;4.008;2023-01-04T05:25:19;102641.03;;;3.06;74.11
13974;BME280;7060;43.770;4.008;2023-01-04T05:27:48;102629.69;;;2.76;74.21
13974;BME280;7060;43.770;4.008;2023-01-04T05:30:18;102628.31;;;2.63;75.33
13974;BME280;7060;43.770;4.008;2023-01-04T05:33:06;102623.47;;;3.55;71.99
13974;BME280;7060;43.770;4.008;2023-01-04T05:35:35;102604.63;;;2.88;73.63
13974;BME280;7060;43.770;4.008;2023-01-04T05:38:04;102630.78;;;2.69;74.10
13974;BME280;7060;43.770;4.008;2023-01-04T05:40:32;102625.94;;;2.55;74.57
13974;BME280;7060;43.770;4.008;2023-01-04T05:43:01;102632.16;;;2.54;75.32
13974;BME280;7060;43.770;4.008;2023-01-04T05:45:30;102637.53;;;2.51;75.41
13974;BME280;7060;43.770;4.008;2023-01-04T05:47:59;102641.88;;;2.52;75.61
13974;BME280;7060;43.770;4.008;2023-01-04T05:50:29;102647.25;;;2.49;75.26
13974;BME280;7060;43.770;4.008;2023-01-04T05:53:04;102652.00;;;2.38;75.42
13974;BME280;7060;43.770;4.008;2023-01-04T05:55:33;102648.53;;;2.36;75.30
13974;BME280;7060;43.770;4.008;2023-01-04T05:58:01;102646.84;;;2.33;75.20
13974;BME280;7060;43.770;4.008;2023-01-04T06:00:30;102638.16;;;2.30;75.62
13974;BME280;7060;43.770;4.008;2023-01-04T06:02:58;102639.78;;;2.34;75.34
13974;BME280;7060;43.770;4.008;2023-01-04T06:05:29;102641.53;;;2.35;74.95
13974;BME280;7060;43.770;4.008;2023-01-04T06:07:57;102636.28;;;2.33;75.45
13974;BME280;7060;43.770;4.008;2023-01-04T06:10:25;102638.94;;;2.33;75.26
13974;BME280;7060;43.770;4.008;2023-01-04T06:12:54;102638.28;;;2.27;75.12
13974;BME280;7060;43.770;4.008;2023-01-04T06:15:22;102641.00;;;2.24;75.34
13974;BME280;7060;43.770;4.008;2023-01-04T06:17:51;102644.59;;;2.21;74.73
13974;BME280;7060;43.770;4.008;2023-01-04T06:20:19;102654.19;;;2.24;75.41
13974;BME280;7060;43.770;4.008;2023-01-04T06:22:49;102649.88;;;2.21;74.35
13974;BME280;7060;43.770;4.008;2023-01-04T06:25:17;102645.72;;;2.13;75.18
13974;BME280;7060;43.770;4.008;2023-01-04T06:27:46;102649.19;;;2.15;75.52
13974;BME280;7060;43.770;4.008;2023-01-04T06:30:14;102654.63;;;2.09;75.58
13974;BME280;7060;43.770;4.008;2023-01-04T06:32:43;102652.06;;;2.05;75.19
13974;BME280;7060;43.770;4.008;2023-01-04T06:35:13;102660.19;;;1.99;75.38
13974;BME280;7060;43.770;4.008;2023-01-04T06:37:41;102663.81;;;1.95;75.68
13974;BME280;7060;43.770;4.008;2023-01-04T06:40:11;102670.03;;;1.93;75.76
13974;BME280;7060;43.770;4.008;2023-01-04T06:42:39;102674.53;;;1.89;75.74
13974;BME280;7060;43.770;4.008;2023-01-04T06:45:14;102673.72;;;1.87;75.94
13974;BME280;7060;43.770;4.008;2023-01-04T06:47:43;102684.25;;;1.87;76.29
13974;BME280;7060;43.770;4.008;2023-01-04T06:50:14;102679.97;;;1.83;75.67
13974;BME280;7060;43.770;4.008;2023-01-04T06:52:42;102680.06;;;1.80;76.05
13974;BME280;7060;43.770;4.008;2023-01-04T06:55:12;102687.13;;;1.78;75.59
13974;BME280;7060;43.770;4.008;2023-01-04T06:57:40;102692.47;;;1.77;77.32
13974;BME280;7060;43.770;4.008;2023-01-04T07:00:10;102691.47;;;1.81;76.60
13974;BME280;7060;43.770;4.008;2023-01-04T07:02:38;102690.53;;;1.83;76.60
13974;BME280;7060;43.770;4.008;2023-01-04T07:05:27;102693.19;;;1.82;76.80
13974;BME280;7060;43.770;4.008;2023-01-04T07:07:58;102663.84;;;1.63;75.73
13974;BME280;7060;43.770;4.008;2023-01-04T07:10:35;102692.34;;;1.81;76.08
13974;BME280;7060;43.770;4.008;2023-01-04T07:13:04;102690.75;;;1.74;76.32
13974;BME280;7060;43.770;4.008;2023-01-04T07:15:33;102681.91;;;1.77;76.11
13974;BME280;7060;43.770;4.008;2023-01-04T07:18:06;102698.59;;;1.77;76.13
13974;BME280;7060;43.770;4.008;2023-01-04T07:20:35;102696.03;;;1.74;76.31
13974;BME280;7060;43.770;4.008;2023-01-04T07:23:04;102692.69;;;1.69;76.12
13974;BME280;7060;43.770;4.008;2023-01-04T07:25:32;102701.16;;;1.80;75.95
13974;BME280;7060;43.770;4.008;2023-01-04T07:28:03;102704.81;;;1.75;76.56
13974;BME280;7060;43.770;4.008;2023-01-04T07:30:31;102705.63;;;1.77;76.11
13974;BME280;7060;43.770;4.008;2023-01-04T07:33:00;102710.06;;;1.76;76.67
13974;BME280;7060;43.770;4.008;2023-01-04T07:35:28;102705.56;;;1.80;76.26
13974;BME280;7060;43.770;4.008;2023-01-04T07:37:57;102717.88;;;1.79;76.50
13974;BME280;7060;43.770;4.008;2023-01-04T07:40:25;102680.69;;;1.57;75.86
13974;BME280;7060;43.770;4.008;2023-01-04T07:42:55;102722.41;;;1.74;76.01
13974;BME280;7060;43.770;4.008;2023-01-04T07:45:26;102728.56;;;1.75;76.61
13974;BME280;7060;43.770;4.008;2023-01-04T07:47:54;102732.75;;;1.82;76.87
13974;BME280;7060;43.770;4.008;2023-01-04T07:50:24;102727.44;;;1.83;76.44
13974;BME280;7060;43.770;4.008;2023-01-04T07:52:53;102724.78;;;1.85;76.74
13974;BME280;7060;43.770;4.008;2023-01-04T07:55:21;102725.63;;;1.85;76.54
13974;BME280;7060;43.770;4.008;2023-01-04T07:57:51;102728.16;;;1.90;76.93
13974;BME280;7060;43.770;4.008;2023-01-04T08:00:20;102719.22;;;1.95;77.84
13974;BME280;7060;43.770;4.008;2023-01-04T08:02:50;102735.69;;;2.34;77.33
13974;BME280;7060;43.770;4.008;2023-01-04T08:05:19;102735.22;;;2.51;77.32
13974;BME280;7060;43.770;4.008;2023-01-04T08:07:48;102731.28;;;2.64;76.78
13974;BME280;7060;43.770;4.008;2023-01-04T08:10:17;102735.38;;;2.74;76.43
13974;BME280;7060;43.770;4.008;2023-01-04T08:12:45;102737.84;;;2.81;76.33
13974;BME280;7060;43.770;4.008;2023-01-04T08:15:14;102741.13;;;2.87;75.55
13974;BME280;7060;43.770;4.008;2023-01-04T08:17:43;102737.34;;;2.96;76.09
13974;BME280;7060;43.770;4.008;2023-01-04T08:20:13;102736.25;;;3.03;75.62
13974;BME280;7060;43.770;4.008;2023-01-04T08:22:42;102737.97;;;3.04;75.46
13974;BME280;7060;43.770;4.008;2023-01-04T08:25:10;102734.47;;;3.03;75.95
13974;BME280;7060;43.770;4.008;2023-01-04T08:27:39;102743.00;;;3.12;75.22
13974;BME280;7060;43.770;4.008;2023-01-04T08:30:08;102739.28;;;3.17;76.04
13974;BME280;7060;43.770;4.008;2023-01-04T08:32:38;102728.44;;;3.26;76.65
13974;BME280;7060;43.770;4.008;2023-01-04T08:35:07;102731.59;;;3.37;77.34
13974;BME280;7060;43.770;4.008;2023-01-04T08:37:36;102731.94;;;3.53;77.22
13974;BME280;7060;43.770;4.008;2023-01-04T08:40:06;102727.72;;;3.72;77.04
13974;BME280;7060;43.770;4.008;2023-01-04T08:42:35;102727.53;;;4.03;78.46
13974;BME280;7060;43.770;4.008;2023-01-04T08:45:04;102736.13;;;4.33;78.08
13974;BME280;7060;43.770;4.008;2023-01-04T08:47:33;102732.25;;;4.65;78.86
13974;BME280;7060;43.770;4.008;2023-01-04T08:50:01;102740.44;;;5.04;78.48
13974;BME280;7060;43.770;4.008;2023-01-04T08:52:38;102739.56;;;5.48;77.81
13974;BME280;7060;43.770;4.008;2023-01-04T08:55:07;102737.84;;;5.87;76.88
13974;BME280;7060;43.770;4.008;2023-01-04T08:57:40;102732.91;;;6.19;75.95
13974;BME280;7060;43.770;4.008;2023-01-04T09:00:09;102748.06;;;6.37;75.01
13974;BME280;7060;43.770;4.008;2023-01-04T09:02:38;102734.25;;;6.47;74.54
13974;BME280;7060;43.770;4.008;2023-01-04T09:05:07;102735.34;;;6.62;74.31
13974;BME280;7060;43.770;4.008;2023-01-04T09:07:37;102734.75;;;6.74;73.75
13974;BME280;7060;43.770;4.008;2023-01-04T09:10:07;102733.69;;;6.78;72.56
13974;BME280;7060;43.770;4.008;2023-01-04T09:12:35;102722.34;;;6.75;72.98
13974;BME280;7060;43.770;4.008;2023-01-04T09:15:05;102733.34;;;6.86;72.60
13974;BME280;7060;43.770;4.008;2023-01-04T09:17:33;102738.66;;;6.86;73.51
13974;BME280;7060;43.770;4.008;2023-01-04T09:20:22;102728.66;;;6.91;73.29
13974;BME280;7060;43.770;4.008;2023-01-04T09:22:52;102737.81;;;7.03;73.56
13974;BME280;7060;43.770;4.008;2023-01-04T09:25:20;102736.69;;;7.08;72.21
13974;BME280;7060;43.770;4.008;2023-01-04T09:27:49;102737.09;;;7.18;72.67
13974;BME280;7060;43.770;4.008;2023-01-04T09:30:17;102734.75;;;7.29;72.90
13974;BME280;7060;43.770;4.008;2023-01-04T09:32:46;102736.00;;;7.41;73.23
13974;BME280;7060;43.770;4.008;2023-01-04T09:35:14;102738.16;;;7.50;72.00
13974;BME280;7060;43.770;4.008;2023-01-04T09:37:43;102732.38;;;7.59;72.48
13974;BME280;7060;43.770;4.008;2023-01-04T09:40:18;102730.06;;;7.70;72.41
13974;BME280;7060;43.770;4.008;2023-01-04T09:42:48;102715.88;;;7.70;72.46
13974;BME280;7060;43.770;4.008;2023-01-04T09:45:38;102733.16;;;7.78;71.82
13974;BME280;7060;43.770;4.008;2023-01-04T09:48:11;102732.28;;;7.78;71.47
13974;BME280;7060;43.770;4.008;2023-01-04T09:50:51;102708.75;;;7.70;71.08
13974;BME280;7060;43.770;4.008;2023-01-04T09:53:23;102737.56;;;7.97;71.84
13974;BME280;7060;43.770;4.008;2023-01-04T09:56:00;102597.66;;;7.22;71.95
13974;BME280;7060;43.770;4.008;2023-01-04T09:58:32;102742.22;;;8.09;72.36
13974;BME280;7060;43.770;4.008;2023-01-04T10:01:04;102755.16;;;8.16;72.18
13974;BME280;7060;43.770;4.008;2023-01-04T10:03:35;102759.22;;;8.24;73.25
13974;BME280;7060;43.770;4.008;2023-01-04T10:06:06;102717.53;;;8.23;74.13
13974;BME280;7060;43.770;4.008;2023-01-04T10:08:38;102744.31;;;8.53;74.17
13974;BME280;7060;43.770;4.008;2023-01-04T10:11:35;102650.09;;;8.05;73.46
13974;BME280;7060;43.770;4.008;2023-01-04T10:14:22;102747.53;;;8.75;73.86
13974;BME280;7060;43.770;4.008;2023-01-04T10:17:04;102747.88;;;8.84;73.49
13974;BME280;7060;43.770;4.008;2023-01-04T10:19:50;102749.84;;;8.97;72.98
13974;BME280;7060;43.770;4.008;2023-01-04T10:22:50;102743.81;;;9.09;73.17
13974;BME280;7060;43.770;4.008;2023-01-04T10:25:25;102748.41;;;9.23;73.13
13974;BME280;7060;43.770;4.008;2023-01-04T10:28:12;102743.56;;;9.29;72.68
13974;BME280;7060;43.770;4.008;2023-01-04T10:30:51;102707.72;;;9.17;71.41
13974;BME280;7060;43.770;4.008;2023-01-04T10:33:26;102644.97;;;8.80;70.95
13974;BME280;7060;43.770;4.008;2023-01-04T10:35:58;102727.97;;;9.37;70.41
13974;BME280;7060;43.770;4.008;2023-01-04T10:38:32;102727.34;;;9.48;70.90
13974;BME280;7060;43.770;4.008;2023-01-04T10:41:08;102689.44;;;9.41;70.28
13974;BME280;7060;43.770;4.008;2023-01-04T10:43:45;102709.38;;;9.66;70.17
13974;BME280;7060;43.770;4.008;2023-01-04T10:46:42;102715.00;;;9.75;70.41
13974;BME280;7060;43.770;4.008;2023-01-04T10:49:17;102706.34;;;9.86;69.72
13974;BME280;7060;43.770;4.008;2023-01-04T10:51:53;102701.09;;;9.99;70.10
13974;BME280;7060;43.770;4.008;2023-01-04T10:54:29;102673.63;;;9.97;69.89
13974;BME280;7060;43.770;4.008;2023-01-04T10:57:04;102695.66;;;10.29;70.05
13974;BME280;7060;43.770;4.008;2023-01-04T10:59:40;102692.03;;;10.44;69.63
13974;BME280;7060;43.770;4.008;2023-01-04T11:02:17;102691.34;;;10.54;69.33
13974;BME280;7060;43.770;4.008;2023-01-04T11:04:51;102690.66;;;10.65;68.99
13974;BME280;7060;43.770;4.008;2023-01-04T11:07:26;102657.34;;;10.57;68.71
13974;BME280;7060;43.770;4.008;2023-01-04T11:09:59;102678.78;;;10.83;69.42
13974;BME280;7060;43.770;4.008;2023-01-04T11:12:31;102686.44;;;10.90;69.76
13974;BME280;7060;43.770;4.008;2023-01-04T11:15:02;102679.06;;;10.93;68.33
13974;BME280;7060;43.770;4.008;2023-01-04T11:17:31;102684.63;;;10.90;67.35
13974;BME280;7060;43.770;4.008;2023-01-04T11:20:00;102672.94;;;10.91;67.83
13974;BME280;7060;43.770;4.008;2023-01-04T11:22:33;102671.59;;;10.98;68.05
13974;BME280;7060;43.770;4.008;2023-01-04T11:25:07;102669.34;;;11.05;68.09
13974;BME280;7060;43.770;4.008;2023-01-04T11:28:01;102661.78;;;11.11;68.24
13974;BME280;7060;43.770;4.008;2023-01-04T11:30:44;102660.31;;;11.20;67.65
13974;BME280;7060;43.770;4.008;2023-01-04T11:33:17;102662.59;;;11.26;66.16
13974;BME280;7060;43.770;4.008;2023-01-04T11:35:48;102657.75;;;11.31;66.23
13974;BME280;7060;43.770;4.008;2023-01-04T11:38:18;102655.41;;;11.39;65.72
13974;BME280;7060;43.770;4.008;2023-01-04T11:40:56;102652.22;;;11.47;64.47
13974;BME280;7060;43.770;4.008;2023-01-04T11:43:26;102661.88;;;11.49;62.78
13974;BME280;7060;43.770;4.008;2023-01-04T11:46:02;102653.53;;;11.54;62.59
13974;BME280;7060;43.770;4.008;2023-01-04T11:48:36;102646.00;;;11.59;62.45
13974;BME280;7060;43.770;4.008;2023-01-04T11:51:16;102647.63;;;11.62;62.47
13974;BME280;7060;43.770;4.008;2023-01-04T11:53:45;102645.69;;;11.64;62.70
13974;BME280;7060;43.770;4.008;2023-01-04T11:56:19;102644.63;;;11.66;60.73
13974;BME280;7060;43.770;4.008;2023-01-04T11:59:11;102642.16;;;11.63;61.44
13974;BME280;7060;43.770;4.008;2023-01-04T12:02:16;102520.88;;;10.98;60.85
13974;BME280;7060;43.770;4.008;2023-01-04T12:05:16;102634.44;;;11.59;61.26
13974;BME280;7060;43.770;4.008;2023-01-04T12:07:54;102623.97;;;11.56;61.67
13974;BME280;7060;43.770;4.008;2023-01-04T12:10:24;102523.34;;;11.01;62.29
13974;BME280;7060;43.770;4.008;2023-01-04T12:12:54;102624.16;;;11.65;61.87
13974;BME280;7060;43.770;4.008;2023-01-04T12:15:26;102628.44;;;11.68;61.64
13974;BME280;7060;43.770;4.008;2023-01-04T12:18:03;102622.13;;;11.69;61.40
13974;BME280;7060;43.770;4.008;2023-01-04T12:20:34;102618.59;;;11.68;60.21
13974;BME280;7060;43.770;4.008;2023-01-04T12:23:03;102613.34;;;11.67;60.95
13974;BME280;7060;43.770;4.008;2023-01-04T12:25:33;102610.66;;;11.67;60.71
13974;BME280;7060;43.770;4.008;2023-01-04T12:28:05;102608.94;;;11.66;60.39
13974;BME280;7060;43.770;4.008;2023-01-04T12:30:37;102581.09;;;11.56;61.09
13974;BME280;7060;43.770;4.008;2023-01-04T12:33:38;102604.97;;;11.71;61.59
13974;BME280;7060;43.770;4.008;2023-01-04T12:36:07;102599.50;;;11.73;62.10
13974;BME280;7060;43.770;4.008;2023-01-04T12:38:56;102599.19;;;11.77;61.82
13974;BME280;7060;43.770;4.008;2023-01-04T12:45:12;102592.97;;;11.77;62.06
13974;BME280;7060;43.770;4.008;2023-01-04T12:47:46;102577.44;;;11.82;62.19
13974;BME280;7060;43.770;4.008;2023-01-04T12:54:01;102513.28;;;11.42;61.14
13974;BME280;7060;43.770;4.008;2023-01-04T12:57:22;102571.50;;;11.89;60.89
13974;BME280;7060;43.770;4.008;2023-01-04T12:59:55;102573.97;;;11.93;61.58
13974;BME280;7060;43.770;4.008;2023-01-04T13:02:26;102573.44;;;12.00;61.47
13974;BME280;7060;43.770;4.008;2023-01-04T13:04:56;102567.75;;;12.05;61.54
13974;BME280;7060;43.770;4.008;2023-01-04T13:07:48;102537.31;;;11.93;61.37
13974;BME280;7060;43.770;4.008;2023-01-04T13:10:29;102560.13;;;12.11;61.03
13974;BME280;7060;43.770;4.008;2023-01-04T13:13:22;102550.47;;;12.09;60.02
13974;BME280;7060;43.770;4.008;2023-01-04T13:16:12;102555.63;;;12.12;58.66
13974;BME280;7060;43.770;4.008;2023-01-04T13:18:46;102558.16;;;12.13;57.75
13974;BME280;7060;43.770;4.008;2023-01-04T13:21:22;102547.97;;;12.18;58.17
13974;BME280;7060;43.770;4.008;2023-01-04T13:23:56;102515.72;;;12.07;58.01
13974;BME280;7060;43.770;4.008;2023-01-04T13:26:33;102535.72;;;12.27;58.13
13974;BME280;7060;43.770;4.008;2023-01-04T13:29:07;102530.16;;;12.30;57.23
13974;BME280;7060;43.770;4.008;2023-01-04T13:31:44;102521.88;;;12.33;57.77
13974;BME280;7060;43.770;4.008;2023-01-04T13:34:21;102495.31;;;12.17;56.86
13974;BME280;7060;43.770;4.008;2023-01-04T13:36:55;102508.69;;;12.30;56.55
13974;BME280;7060;43.770;4.008;2023-01-04T13:39:29;102518.88;;;12.38;56.74
13974;BME280;7060;43.770;4.008;2023-01-04T13:41:58;102509.84;;;12.39;56.27
13974;BME280;7060;43.770;4.008;2023-01-04T13:44:53;102506.03;;;12.41;56.23
13974;BME280;7060;43.770;4.008;2023-01-04T13:47:46;102505.44;;;12.38;56.31
13974;BME280;7060;43.770;4.008;2023-01-04T13:50:26;102474.41;;;12.23;56.17
13974;BME280;7060;43.770;4.008;2023-01-04T13:52:56;102500.69;;;12.41;57.09
13974;BME280;7060;43.770;4.008;2023-01-04T13:55:36;102473.94;;;12.29;56.92
13974;BME280;7060;43.770;4.008;2023-01-04T13:58:13;102472.13;;;12.29;56.10
13974;BME280;7060;43.770;4.008;2023-01-04T14:00:45;102497.56;;;12.47;56.10